Lopatcong, New Jersey
Current Conditions -  °F | °C
As of 2:51 AM on Thursday 23 Oct 2014 (Local Time) from KABE Reporting Station
Overcast Overcast  
Wind Chill: 52°   Ceiling: 4000
Heat Index: 52°   Visibility: 10mi
Dew Point: 43°   Wind: 12mph
Humidity: 71%   Direction: 350°N
Pressure: 29.8"   Gusts: NA
Location:  40.7083°N, 75.1472°W
Report Text: KABE 230651Z 35010KT 10SM OVC040 11/06 A2980 RMK AO2 SLP091 T01110061
Loading
Personal Weather Stations






























Interactive Weather Map New forecast layout! Learn more

10-Day Weather Forecast

Advertisements
Track Severe Weather on mobile